FMMIOMAA

Guest
Details From FMMI - Ivato
To OMAA - Abu Dhabi Intl
Flight Number -
Tags Generated
Created
Modified
Stats Distance 2,631 nm / 4,872 km
Max Altitude 0 ft / 0 m
Waypoints 3
Social Downloads 0
Likes 0
Share VATSIM

Download

Looking for another format? Having issues loading an existing format? Contact us
Advertisement - Login to hide

Notes

Generated

Route

FMMI R1750 OMAA

ID Type Via Altitude Latitude Longitude Leg Dist Tot Dist Heading (true) Name
O FMMI APT - 0 ft / 0 m -18.79479˚ 47.46427˚ - 0 nm - -
R1750 FIX - 0 ft / 0 m 24.44439˚ 54.63521˚ 2630 nm 2630 nm 9° / 10° -
O OMAA APT - 0 ft / 0 m 24.44439˚ 54.63521˚ 0 nm 2630 nm 0° / 180° -

Altitude Profile

Advertisement - Login to hide

Weather


0- 5 10 15 20 25 30 35+ Temperature / ° C

Clouds and Precipitation
Forecast for 2017-12-17 00:00 UTC. Updated an hour ago

Ground ~20,000 ft ~40,000 ft Winds

FMMI

Details ICAO FMMI (TNR)
Name IVATO
Region Comoros, Mayotte, Réunion and Madagascar
Timezone Indian/Antananarivo (UTC+3.0)
Stats Elevation 4,198 ft / 1,280 m (AMSL)
Location -18.796950° 47.478806°
Runways 1
Magnetic Variation 15.161° W

METAR

FMMI 170030Z 14004KT 9999 FEW010 BKN020 17/16 Q1021 NOSIG

Decode

TAF

Not found

Departure Runways

ID Width Length Bearing (true) Bearing (mag) Surface Threshold Offset Overrun Length
11 148 ft / 45 m 10,167 ft / 3,099 m 98.92° 114.08° Asphalt 0 ft / 0 m 90 ft / 27 m
29 148 ft / 45 m 10,167 ft / 3,099 m 278.91° 294.07° Asphalt 0 ft / 0 m 90 ft / 27 m

OMAA

Details ICAO OMAA (AUH)
Name ABU DHABI INTL
Region United Arab Emirates
Timezone Asia/Dubai (UTC+4.0)
Stats Elevation 88 ft / 27 m (AMSL)
Location 24.433049° 54.651182°
Runways 1
Magnetic Variation 1.980° E

METAR

OMAA 170000Z 06007KT CAVOK 19/12 Q1017 NOSIG

Decode

TAF

TAF OMAA 162300Z 1700/1806 09005KT 8000 NSC BECMG 1705/1707 18011KT SCT040 BECMG 1710/1712 35010KT FEW045TCU PROB30 TEMPO 1710/1715 VRB30G40KT 3000 TSRA BLDU FEW040CB BECMG 1716/1718 05005KT NSC PROB30 TEMPO 1800/1804 BKN025

Decode

Destination Runways

ID Width Length Bearing (true) Bearing (mag) Surface Threshold Offset Overrun Length
13 148 ft / 45 m 13,461 ft / 4,103 m 127.94° 125.96° Asphalt 0 ft / 0 m 180 ft / 55 m
31 148 ft / 45 m 13,461 ft / 4,103 m 307.95° 305.97° Asphalt 0 ft / 0 m 196 ft / 60 m

Approach Navaids

Runway Type Ident Frequency Range Bearing (true) Bearing (mag) Slope Elevation
13 Localiser IAE 108.90 MHz 18 nm / 33 km 127.95° 125.97° - 110 ft / 34 m (AMSL)
13 Glidescope IAE 108.90 MHz 10 nm / 19 km 127.94° 125.96° 3.00° 120 ft / 37 m (AMSL)
13 DME IAE 108.90 MHz 18 nm / 33 km - - - 98 ft / 30 m (AMSL)
31 Localiser IAW 109.30 MHz 18 nm / 33 km 307.93° 305.95° - 88 ft / 27 m (AMSL)
31 Glidescope IAW 109.30 MHz 10 nm / 19 km 307.94° 305.96° 3.00° 122 ft / 37 m (AMSL)
31 DME IAW 109.30 MHz 18 nm / 33 km - - - 96 ft / 29 m (AMSL)

Popular Alternatives